sensor_id;sensor_type;location;lat;lon;timestamp;pressure;altitude;pressure_sealevel;temperature;humidity
75933;BME280;64803;52.356;5.310;2023-05-03T00:00:24;103337.41;;;4.72;100.00
75933;BME280;64803;52.356;5.310;2023-05-03T00:02:51;103334.75;;;4.72;100.00
75933;BME280;64803;52.356;5.310;2023-05-03T00:05:18;103325.19;;;4.51;100.00
75933;BME280;64803;52.356;5.310;2023-05-03T00:07:45;103327.31;;;4.44;100.00
75933;BME280;64803;52.356;5.310;2023-05-03T00:10:12;103343.19;;;4.46;100.00
75933;BME280;64803;52.356;5.310;2023-05-03T00:12:41;103322.75;;;4.29;100.00
75933;BME280;64803;52.356;5.310;2023-05-03T00:15:08;103346.31;;;4.37;100.00
75933;BME280;64803;52.356;5.310;2023-05-03T00:17:36;103344.13;;;4.28;100.00
75933;BME280;64803;52.356;5.310;2023-05-03T00:20:05;103346.06;;;4.24;100.00
75933;BME280;64803;52.356;5.310;2023-05-03T00:22:32;103352.16;;;4.26;100.00
75933;BME280;64803;52.356;5.310;2023-05-03T00:24:59;103344.28;;;4.25;100.00
75933;BME280;64803;52.356;5.310;2023-05-03T00:27:25;103350.66;;;4.21;100.00
75933;BME280;64803;52.356;5.310;2023-05-03T00:29:51;103347.47;;;4.14;100.00
75933;BME280;64803;52.356;5.310;2023-05-03T00:32:19;103346.91;;;4.08;100.00
75933;BME280;64803;52.356;5.310;2023-05-03T00:34:45;103345.50;;;4.01;100.00
75933;BME280;64803;52.356;5.310;2023-05-03T00:37:11;103343.03;;;3.96;100.00
75933;BME280;64803;52.356;5.310;2023-05-03T00:39:37;103338.75;;;3.94;100.00
75933;BME280;64803;52.356;5.310;2023-05-03T00:42:03;103339.91;;;3.88;100.00
75933;BME280;64803;52.356;5.310;2023-05-03T00:44:29;103340.06;;;3.85;100.00
75933;BME280;64803;52.356;5.310;2023-05-03T00:46:55;103341.91;;;3.83;100.00
75933;BME280;64803;52.356;5.310;2023-05-03T00:49:24;103337.16;;;3.90;100.00
75933;BME280;64803;52.356;5.310;2023-05-03T00:51:53;103323.69;;;3.76;100.00
75933;BME280;64803;52.356;5.310;2023-05-03T00:54:20;103340.25;;;3.81;100.00
75933;BME280;64803;52.356;5.310;2023-05-03T00:56:46;103325.38;;;3.77;100.00
75933;BME280;64803;52.356;5.310;2023-05-03T00:59:12;103339.91;;;3.70;100.00
75933;BME280;64803;52.356;5.310;2023-05-03T01:01:38;103347.13;;;3.68;100.00
75933;BME280;64803;52.356;5.310;2023-05-03T01:04:05;103329.28;;;3.70;100.00
75933;BME280;64803;52.356;5.310;2023-05-03T01:09:06;103336.47;;;3.68;100.00
75933;BME280;64803;52.356;5.310;2023-05-03T01:17:12;103332.72;;;3.72;100.00
75933;BME280;64803;52.356;5.310;2023-05-03T01:22:20;103336.75;;;3.62;100.00
75933;BME280;64803;52.356;5.310;2023-05-03T01:27:17;103338.78;;;3.57;100.00
75933;BME280;64803;52.356;5.310;2023-05-03T01:29:44;103343.34;;;3.72;100.00
75933;BME280;64803;52.356;5.310;2023-05-03T01:32:18;103337.56;;;3.64;100.00
75933;BME280;64803;52.356;5.310;2023-05-03T01:34:54;103345.94;;;3.55;100.00
75933;BME280;64803;52.356;5.310;2023-05-03T01:37:21;103344.81;;;3.41;100.00
75933;BME280;64803;52.356;5.310;2023-05-03T01:40:01;103337.91;;;3.37;100.00
75933;BME280;64803;52.356;5.310;2023-05-03T01:42:31;103335.34;;;3.36;100.00
75933;BME280;64803;52.356;5.310;2023-05-03T01:44:59;103319.25;;;3.20;100.00
75933;BME280;64803;52.356;5.310;2023-05-03T01:47:28;103335.81;;;3.25;100.00
75933;BME280;64803;52.356;5.310;2023-05-03T01:49:54;103329.78;;;3.22;100.00
75933;BME280;64803;52.356;5.310;2023-05-03T01:52:20;103328.84;;;3.23;100.00
75933;BME280;64803;52.356;5.310;2023-05-03T01:54:46;103316.78;;;3.16;100.00
75933;BME280;64803;52.356;5.310;2023-05-03T01:57:12;103330.44;;;3.08;100.00
75933;BME280;64803;52.356;5.310;2023-05-03T01:59:38;103324.44;;;3.03;100.00
75933;BME280;64803;52.356;5.310;2023-05-03T02:02:04;103320.38;;;2.96;100.00
75933;BME280;64803;52.356;5.310;2023-05-03T02:04:30;103324.72;;;2.97;100.00
75933;BME280;64803;52.356;5.310;2023-05-03T02:06:56;103332.94;;;2.91;100.00
75933;BME280;64803;52.356;5.310;2023-05-03T02:09:23;103318.31;;;2.83;100.00
75933;BME280;64803;52.356;5.310;2023-05-03T02:11:49;103323.75;;;2.80;100.00
75933;BME280;64803;52.356;5.310;2023-05-03T02:14:15;103316.66;;;2.80;100.00
75933;BME280;64803;52.356;5.310;2023-05-03T02:16:41;103315.13;;;2.75;100.00
75933;BME280;64803;52.356;5.310;2023-05-03T02:19:08;103311.25;;;2.63;100.00
75933;BME280;64803;52.356;5.310;2023-05-03T02:21:36;103302.75;;;2.55;100.00
75933;BME280;64803;52.356;5.310;2023-05-03T02:24:02;103307.91;;;2.58;100.00
75933;BME280;64803;52.356;5.310;2023-05-03T02:26:28;103259.53;;;2.33;100.00
75933;BME280;64803;52.356;5.310;2023-05-03T02:28:54;103299.28;;;2.53;100.00
75933;BME280;64803;52.356;5.310;2023-05-03T02:31:23;103291.16;;;2.58;100.00
75933;BME280;64803;52.356;5.310;2023-05-03T02:33:49;103290.03;;;2.63;100.00
75933;BME280;64803;52.356;5.310;2023-05-03T02:36:15;103286.56;;;2.61;100.00
75933;BME280;64803;52.356;5.310;2023-05-03T02:38:43;103276.69;;;2.65;100.00
75933;BME280;64803;52.356;5.310;2023-05-03T02:41:10;103278.41;;;2.66;100.00
75933;BME280;64803;52.356;5.310;2023-05-03T02:43:36;103278.63;;;2.61;100.00
75933;BME280;64803;52.356;5.310;2023-05-03T02:46:02;103274.38;;;2.57;100.00
75933;BME280;64803;52.356;5.310;2023-05-03T02:48:28;103279.53;;;2.60;100.00
75933;BME280;64803;52.356;5.310;2023-05-03T02:50:55;103273.25;;;2.63;100.00
75933;BME280;64803;52.356;5.310;2023-05-03T02:53:21;103276.22;;;2.55;100.00
75933;BME280;64803;52.356;5.310;2023-05-03T02:55:49;103284.09;;;2.57;100.00
75933;BME280;64803;52.356;5.310;2023-05-03T02:58:15;103284.25;;;2.54;100.00
75933;BME280;64803;52.356;5.310;2023-05-03T03:00:41;103287.13;;;2.49;100.00
75933;BME280;64803;52.356;5.310;2023-05-03T03:03:07;103294.19;;;2.49;100.00
75933;BME280;64803;52.356;5.310;2023-05-03T03:05:33;103306.06;;;2.60;100.00
75933;BME280;64803;52.356;5.310;2023-05-03T03:07:59;103307.91;;;2.58;100.00
75933;BME280;64803;52.356;5.310;2023-05-03T03:10:26;103309.78;;;2.56;100.00
75933;BME280;64803;52.356;5.310;2023-05-03T03:12:52;103322.50;;;2.48;100.00
75933;BME280;64803;52.356;5.310;2023-05-03T03:15:27;103310.06;;;2.28;100.00
75933;BME280;64803;52.356;5.310;2023-05-03T03:17:54;103307.88;;;2.18;100.00
75933;BME280;64803;52.356;5.310;2023-05-03T03:20:22;103311.47;;;2.17;100.00
75933;BME280;64803;52.356;5.310;2023-05-03T03:22:49;103305.22;;;2.18;100.00
75933;BME280;64803;52.356;5.310;2023-05-03T03:25:15;103307.22;;;2.13;100.00
75933;BME280;64803;52.356;5.310;2023-05-03T03:27:41;103313.25;;;2.16;100.00
75933;BME280;64803;52.356;5.310;2023-05-03T03:30:07;103317.75;;;2.14;100.00
75933;BME280;64803;52.356;5.310;2023-05-03T03:32:39;103316.75;;;2.17;100.00
75933;BME280;64803;52.356;5.310;2023-05-03T03:35:09;103319.41;;;2.17;100.00
75933;BME280;64803;52.356;5.310;2023-05-03T03:37:36;103317.03;;;2.11;100.00
75933;BME280;64803;52.356;5.310;2023-05-03T03:40:05;103324.13;;;2.10;100.00
75933;BME280;64803;52.356;5.310;2023-05-03T03:42:31;103322.72;;;2.02;100.00
75933;BME280;64803;52.356;5.310;2023-05-03T03:44:58;103319.63;;;1.91;100.00
75933;BME280;64803;52.356;5.310;2023-05-03T03:47:24;103325.91;;;1.88;100.00
75933;BME280;64803;52.356;5.310;2023-05-03T03:49:50;103322.56;;;1.83;100.00
75933;BME280;64803;52.356;5.310;2023-05-03T03:52:16;103329.75;;;1.81;100.00
75933;BME280;64803;52.356;5.310;2023-05-03T03:54:42;103326.53;;;1.73;100.00
75933;BME280;64803;52.356;5.310;2023-05-03T03:57:08;103325.91;;;1.67;100.00
75933;BME280;64803;52.356;5.310;2023-05-03T03:59:35;103320.75;;;1.64;100.00
75933;BME280;64803;52.356;5.310;2023-05-03T04:02:01;103316.41;;;1.61;100.00
75933;BME280;64803;52.356;5.310;2023-05-03T04:04:27;103307.72;;;1.58;100.00
75933;BME280;64803;52.356;5.310;2023-05-03T04:06:55;103313.97;;;1.57;100.00
75933;BME280;64803;52.356;5.310;2023-05-03T04:09:24;103323.50;;;1.61;100.00
75933;BME280;64803;52.356;5.310;2023-05-03T04:11:50;103318.25;;;1.59;100.00
75933;BME280;64803;52.356;5.310;2023-05-03T04:14:16;103332.81;;;1.71;100.00
75933;BME280;64803;52.356;5.310;2023-05-03T04:16:44;103341.31;;;1.79;100.00
75933;BME280;64803;52.356;5.310;2023-05-03T04:19:10;103344.78;;;1.81;100.00
75933;BME280;64803;52.356;5.310;2023-05-03T04:21:39;103341.31;;;1.79;100.00
75933;BME280;64803;52.356;5.310;2023-05-03T04:24:05;103344.50;;;1.87;100.00
75933;BME280;64803;52.356;5.310;2023-05-03T04:26:32;103358.56;;;1.89;100.00
75933;BME280;64803;52.356;5.310;2023-05-03T04:29:24;103351.63;;;1.86;100.00
75933;BME280;64803;52.356;5.310;2023-05-03T04:31:50;103360.25;;;1.91;100.00
75933;BME280;64803;52.356;5.310;2023-05-03T04:34:16;103311.84;;;1.65;100.00
75933;BME280;64803;52.356;5.310;2023-05-03T04:36:46;103358.44;;;1.92;100.00
75933;BME280;64803;52.356;5.310;2023-05-03T04:39:14;103360.16;;;1.93;100.00
75933;BME280;64803;52.356;5.310;2023-05-03T04:41:40;103365.53;;;1.91;100.00
75933;BME280;64803;52.356;5.310;2023-05-03T04:44:07;103350.53;;;1.90;100.00
75933;BME280;64803;52.356;5.310;2023-05-03T04:46:34;103359.28;;;1.92;100.00
75933;BME280;64803;52.356;5.310;2023-05-03T04:49:00;103368.78;;;1.98;100.00
75933;BME280;64803;52.356;5.310;2023-05-03T04:51:26;103373.00;;;2.03;100.00
75933;BME280;64803;52.356;5.310;2023-05-03T04:53:53;103371.75;;;2.12;100.00
75933;BME280;64803;52.356;5.310;2023-05-03T04:56:20;103369.72;;;2.18;100.00
75933;BME280;64803;52.356;5.310;2023-05-03T04:58:52;103371.13;;;2.27;100.00
75933;BME280;64803;52.356;5.310;2023-05-03T05:01:19;103379.63;;;2.35;100.00
75933;BME280;64803;52.356;5.310;2023-05-03T05:03:51;103363.47;;;2.41;100.00
75933;BME280;64803;52.356;5.310;2023-05-03T05:06:21;103370.22;;;2.48;100.00
75933;BME280;64803;52.356;5.310;2023-05-03T05:08:47;103378.75;;;2.56;100.00
75933;BME280;64803;52.356;5.310;2023-05-03T05:11:14;103378.38;;;2.64;100.00
75933;BME280;64803;52.356;5.310;2023-05-03T05:13:40;103379.53;;;2.78;100.00
75933;BME280;64803;52.356;5.310;2023-05-03T05:16:06;103373.84;;;2.87;100.00
75933;BME280;64803;52.356;5.310;2023-05-03T05:18:33;103379.59;;;2.97;100.00
75933;BME280;64803;52.356;5.310;2023-05-03T05:21:02;103367.84;;;3.02;100.00
75933;BME280;64803;52.356;5.310;2023-05-03T05:23:29;103379.50;;;3.18;100.00
75933;BME280;64803;52.356;5.310;2023-05-03T05:25:55;103370.03;;;3.31;100.00
75933;BME280;64803;52.356;5.310;2023-05-03T05:28:27;103379.91;;;3.48;100.00
75933;BME280;64803;52.356;5.310;2023-05-03T05:30:54;103381.13;;;3.60;100.00
75933;BME280;64803;52.356;5.310;2023-05-03T05:33:21;103375.22;;;3.72;100.00
75933;BME280;64803;52.356;5.310;2023-05-03T05:35:48;103374.38;;;3.90;100.00
75933;BME280;64803;52.356;5.310;2023-05-03T05:38:16;103373.69;;;4.03;100.00
75933;BME280;64803;52.356;5.310;2023-05-03T05:40:43;103376.47;;;4.19;100.00
75933;BME280;64803;52.356;5.310;2023-05-03T05:43:09;103368.84;;;4.30;100.00
75933;BME280;64803;52.356;5.310;2023-05-03T05:45:41;103376.84;;;4.47;100.00
75933;BME280;64803;52.356;5.310;2023-05-03T05:48:07;103367.31;;;4.60;100.00
75933;BME280;64803;52.356;5.310;2023-05-03T05:50:33;103373.41;;;4.79;100.00
75933;BME280;64803;52.356;5.310;2023-05-03T05:53:06;103376.06;;;4.96;100.00
75933;BME280;64803;52.356;5.310;2023-05-03T05:55:36;103382.28;;;5.12;100.00
75933;BME280;64803;52.356;5.310;2023-05-03T05:58:03;103381.22;;;5.32;100.00
75933;BME280;64803;52.356;5.310;2023-05-03T06:00:37;103380.75;;;5.56;100.00
75933;BME280;64803;52.356;5.310;2023-05-03T06:03:04;103382.91;;;5.81;100.00
75933;BME280;64803;52.356;5.310;2023-05-03T06:05:30;103383.56;;;6.02;100.00
75933;BME280;64803;52.356;5.310;2023-05-03T06:07:56;103386.75;;;6.24;100.00
75933;BME280;64803;52.356;5.310;2023-05-03T06:10:22;103385.84;;;6.39;100.00
75933;BME280;64803;52.356;5.310;2023-05-03T06:12:51;103381.69;;;6.49;100.00
75933;BME280;64803;52.356;5.310;2023-05-03T06:15:22;103389.56;;;6.66;100.00
75933;BME280;64803;52.356;5.310;2023-05-03T06:17:48;103389.00;;;6.75;100.00
75933;BME280;64803;52.356;5.310;2023-05-03T06:20:14;103390.22;;;6.85;100.00
75933;BME280;64803;52.356;5.310;2023-05-03T06:22:41;103381.44;;;6.97;100.00
75933;BME280;64803;52.356;5.310;2023-05-03T06:25:09;103382.03;;;7.02;100.00
75933;BME280;64803;52.356;5.310;2023-05-03T06:27:36;103381.28;;;7.14;100.00
75933;BME280;64803;52.356;5.310;2023-05-03T06:30:03;103388.63;;;7.25;100.00
75933;BME280;64803;52.356;5.310;2023-05-03T06:32:31;103384.44;;;7.35;100.00
75933;BME280;64803;52.356;5.310;2023-05-03T06:34:57;103379.75;;;7.38;100.00
75933;BME280;64803;52.356;5.310;2023-05-03T06:37:25;103387.69;;;7.40;100.00
75933;BME280;64803;52.356;5.310;2023-05-03T06:39:51;103379.56;;;7.41;100.00
75933;BME280;64803;52.356;5.310;2023-05-03T06:42:18;103377.28;;;7.49;100.00
75933;BME280;64803;52.356;5.310;2023-05-03T06:44:47;103379.84;;;7.51;100.00
75933;BME280;64803;52.356;5.310;2023-05-03T06:47:13;103376.59;;;7.60;100.00
75933;BME280;64803;52.356;5.310;2023-05-03T06:49:41;103380.41;;;7.70;100.00
75933;BME280;64803;52.356;5.310;2023-05-03T06:52:07;103378.59;;;7.84;100.00
75933;BME280;64803;52.356;5.310;2023-05-03T06:54:33;103373.84;;;7.88;100.00
75933;BME280;64803;52.356;5.310;2023-05-03T06:56:59;103366.88;;;7.99;100.00
75933;BME280;64803;52.356;5.310;2023-05-03T06:59:25;103356.50;;;8.08;100.00
75933;BME280;64803;52.356;5.310;2023-05-03T07:01:51;103364.38;;;8.11;100.00
75933;BME280;64803;52.356;5.310;2023-05-03T07:04:17;103353.84;;;8.08;100.00
75933;BME280;64803;52.356;5.310;2023-05-03T07:06:43;103362.13;;;8.17;100.00
75933;BME280;64803;52.356;5.310;2023-05-03T07:09:09;103348.66;;;8.19;100.00
75933;BME280;64803;52.356;5.310;2023-05-03T07:11:35;103355.53;;;8.23;100.00
75933;BME280;64803;52.356;5.310;2023-05-03T07:14:04;103347.88;;;8.31;100.00
75933;BME280;64803;52.356;5.310;2023-05-03T07:16:30;103346.59;;;8.36;100.00
75933;BME280;64803;52.356;5.310;2023-05-03T07:18:56;103336.34;;;8.43;100.00
75933;BME280;64803;52.356;5.310;2023-05-03T07:21:22;103332.50;;;8.47;100.00
75933;BME280;64803;52.356;5.310;2023-05-03T07:23:48;103312.22;;;8.43;100.00
75933;BME280;64803;52.356;5.310;2023-05-03T07:26:15;103343.16;;;8.73;94.25
75933;BME280;64803;52.356;5.310;2023-05-03T07:28:41;103342.19;;;8.87;93.99
75933;BME280;64803;52.356;5.310;2023-05-03T07:31:07;103343.81;;;8.77;93.88
75933;BME280;64803;52.356;5.310;2023-05-03T07:33:33;103343.38;;;8.83;94.41
75933;BME280;64803;52.356;5.310;2023-05-03T07:36:00;103340.59;;;8.97;91.39
75933;BME280;64803;52.356;5.310;2023-05-03T07:38:26;103343.16;;;9.11;91.42
75933;BME280;64803;52.356;5.310;2023-05-03T07:40:52;103317.63;;;9.31;91.21
75933;BME280;64803;52.356;5.310;2023-05-03T07:43:18;103324.91;;;9.41;88.12
75933;BME280;64803;52.356;5.310;2023-05-03T07:45:45;103324.44;;;9.47;86.58
75933;BME280;64803;52.356;5.310;2023-05-03T07:48:11;103318.03;;;9.37;85.00
75933;BME280;64803;52.356;5.310;2023-05-03T07:50:41;103316.88;;;9.41;87.26
75933;BME280;64803;52.356;5.310;2023-05-03T07:53:08;103315.66;;;9.45;81.81
75933;BME280;64803;52.356;5.310;2023-05-03T07:55:34;103307.91;;;9.66;85.81
75933;BME280;64803;52.356;5.310;2023-05-03T07:58:01;103312.69;;;9.37;80.76
75933;BME280;64803;52.356;5.310;2023-05-03T08:00:28;103321.03;;;9.45;79.69
75933;BME280;64803;52.356;5.310;2023-05-03T08:02:54;103315.88;;;9.55;77.93
75933;BME280;64803;52.356;5.310;2023-05-03T08:05:20;103319.09;;;9.47;78.93
75933;BME280;64803;52.356;5.310;2023-05-03T08:07:46;103323.38;;;9.62;79.25
75933;BME280;64803;52.356;5.310;2023-05-03T08:10:13;103313.16;;;9.67;80.54
75933;BME280;64803;52.356;5.310;2023-05-03T08:12:38;103321.41;;;9.64;80.79
75933;BME280;64803;52.356;5.310;2023-05-03T08:15:05;103315.63;;;9.58;81.85
75933;BME280;64803;52.356;5.310;2023-05-03T08:17:32;103304.25;;;9.67;84.96
75933;BME280;64803;52.356;5.310;2023-05-03T08:19:58;103309.09;;;9.85;82.81
75933;BME280;64803;52.356;5.310;2023-05-03T08:22:24;103297.72;;;9.82;81.57
75933;BME280;64803;52.356;5.310;2023-05-03T08:24:52;103215.13;;;9.27;81.38
75933;BME280;64803;52.356;5.310;2023-05-03T08:27:21;103287.28;;;9.66;80.81
75933;BME280;64803;52.356;5.310;2023-05-03T08:29:48;103297.84;;;9.80;76.68
75933;BME280;64803;52.356;5.310;2023-05-03T08:32:14;103298.94;;;10.01;80.13
75933;BME280;64803;52.356;5.310;2023-05-03T08:34:40;103311.63;;;9.99;77.62
75933;BME280;64803;52.356;5.310;2023-05-03T08:37:06;103303.69;;;9.98;78.07
75933;BME280;64803;52.356;5.310;2023-05-03T08:39:32;103316.66;;;10.04;80.68
75933;BME280;64803;52.356;5.310;2023-05-03T08:41:58;103324.22;;;10.23;79.78
75933;BME280;64803;52.356;5.310;2023-05-03T08:44:28;103322.84;;;10.17;75.24
75933;BME280;64803;52.356;5.310;2023-05-03T08:46:54;103304.69;;;10.20;77.17
75933;BME280;64803;52.356;5.310;2023-05-03T08:49:20;103322.66;;;10.31;77.31
75933;BME280;64803;52.356;5.310;2023-05-03T08:51:46;103324.41;;;10.08;72.71
75933;BME280;64803;52.356;5.310;2023-05-03T08:54:14;103327.34;;;10.16;77.12
75933;BME280;64803;52.356;5.310;2023-05-03T08:56:43;103297.31;;;10.11;74.77
75933;BME280;64803;52.356;5.310;2023-05-03T08:59:09;103325.34;;;10.31;75.58
75933;BME280;64803;52.356;5.310;2023-05-03T09:01:37;103318.47;;;10.51;77.88
75933;BME280;64803;52.356;5.310;2023-05-03T09:04:05;103335.88;;;10.80;74.80
75933;BME280;64803;52.356;5.310;2023-05-03T09:06:32;103317.84;;;11.04;78.72
75933;BME280;64803;52.356;5.310;2023-05-03T09:09:00;103331.66;;;11.21;75.19
75933;BME280;64803;52.356;5.310;2023-05-03T09:11:31;103325.94;;;11.59;75.58
75933;BME280;64803;52.356;5.310;2023-05-03T09:14:11;103325.66;;;11.62;74.32
75933;BME280;64803;52.356;5.310;2023-05-03T09:16:41;103333.72;;;11.84;74.20
75933;BME280;64803;52.356;5.310;2023-05-03T09:19:10;103335.56;;;11.51;70.21
75933;BME280;64803;52.356;5.310;2023-05-03T09:21:42;103318.34;;;10.98;70.11
75933;BME280;64803;52.356;5.310;2023-05-03T09:26:39;103335.28;;;10.42;71.88
75933;BME280;64803;52.356;5.310;2023-05-03T09:29:07;103327.78;;;10.69;71.52
75933;BME280;64803;52.356;5.310;2023-05-03T09:31:34;103334.72;;;10.60;68.73
75933;BME280;64803;52.356;5.310;2023-05-03T09:34:01;103306.13;;;10.48;71.08
75933;BME280;64803;52.356;5.310;2023-05-03T09:36:47;103322.91;;;10.28;70.25
75933;BME280;64803;52.356;5.310;2023-05-03T09:39:17;103321.97;;;10.40;73.28
75933;BME280;64803;52.356;5.310;2023-05-03T09:41:44;103321.66;;;10.56;73.57
75933;BME280;64803;52.356;5.310;2023-05-03T09:44:11;103317.66;;;10.72;70.18
75933;BME280;64803;52.356;5.310;2023-05-03T09:46:38;103313.91;;;10.97;71.38
75933;BME280;64803;52.356;5.310;2023-05-03T09:49:05;103318.78;;;10.70;70.29
75933;BME280;64803;52.356;5.310;2023-05-03T09:51:32;103312.34;;;10.94;71.35
75933;BME280;64803;52.356;5.310;2023-05-03T09:53:59;103312.59;;;11.02;68.16
75933;BME280;64803;52.356;5.310;2023-05-03T09:56:25;103304.03;;;11.30;73.04
75933;BME280;64803;52.356;5.310;2023-05-03T09:58:52;103289.94;;;11.60;70.70
75933;BME280;64803;52.356;5.310;2023-05-03T10:01:19;103296.31;;;11.70;69.26
75933;BME280;64803;52.356;5.310;2023-05-03T10:03:49;103298.53;;;11.32;70.70
75933;BME280;64803;52.356;5.310;2023-05-03T10:09:30;103294.38;;;11.50;71.33
75933;BME280;64803;52.356;5.310;2023-05-03T10:11:59;103277.22;;;11.62;71.65
75933;BME280;64803;52.356;5.310;2023-05-03T10:14:26;103292.38;;;11.85;67.69
75933;BME280;64803;52.356;5.310;2023-05-03T10:16:58;103299.66;;;11.94;65.42
75933;BME280;64803;52.356;5.310;2023-05-03T10:22:03;103292.41;;;11.52;69.36
75933;BME280;64803;52.356;5.310;2023-05-03T10:24:34;103299.47;;;11.75;68.07
75933;BME280;64803;52.356;5.310;2023-05-03T10:27:00;103289.16;;;11.91;72.06
75933;BME280;64803;52.356;5.310;2023-05-03T10:32:03;103304.47;;;11.91;70.84
75933;BME280;64803;52.356;5.310;2023-05-03T10:34:31;103300.53;;;12.26;72.44
75933;BME280;64803;52.356;5.310;2023-05-03T10:37:00;103303.72;;;12.52;72.54
75933;BME280;64803;52.356;5.310;2023-05-03T10:39:28;103296.03;;;12.48;65.33
75933;BME280;64803;52.356;5.310;2023-05-03T10:42:02;103294.44;;;12.45;62.82
75933;BME280;64803;52.356;5.310;2023-05-03T10:44:37;103294.88;;;12.09;62.78
75933;BME280;64803;52.356;5.310;2023-05-03T10:47:15;103280.91;;;12.35;70.25
75933;BME280;64803;52.356;5.310;2023-05-03T10:49:41;103295.38;;;12.76;68.80
75933;BME280;64803;52.356;5.310;2023-05-03T10:55:08;103289.28;;;12.32;62.86
75933;BME280;64803;52.356;5.310;2023-05-03T10:57:37;103284.66;;;12.23;66.61
75933;BME280;64803;52.356;5.310;2023-05-03T11:00:10;103289.03;;;12.24;61.95
75933;BME280;64803;52.356;5.310;2023-05-03T11:02:42;103278.09;;;12.05;64.24
75933;BME280;64803;52.356;5.310;2023-05-03T11:05:16;103273.47;;;12.28;63.11
75933;BME280;64803;52.356;5.310;2023-05-03T11:07:43;103282.03;;;12.54;61.43
75933;BME280;64803;52.356;5.310;2023-05-03T11:10:17;103266.78;;;12.94;69.99
75933;BME280;64803;52.356;5.310;2023-05-03T11:12:43;103260.63;;;13.33;66.36
75933;BME280;64803;52.356;5.310;2023-05-03T11:15:09;103252.63;;;13.22;61.74
75933;BME280;64803;52.356;5.310;2023-05-03T11:17:37;103251.78;;;13.21;64.72
75933;BME280;64803;52.356;5.310;2023-05-03T11:20:06;103257.78;;;12.74;59.05
75933;BME280;64803;52.356;5.310;2023-05-03T11:22:36;103251.25;;;12.77;63.63
75933;BME280;64803;52.356;5.310;2023-05-03T11:25:02;103248.88;;;13.04;61.19
75933;BME280;64803;52.356;5.310;2023-05-03T11:27:28;103245.06;;;12.86;58.65
75933;BME280;64803;52.356;5.310;2023-05-03T11:29:54;103246.28;;;13.02;63.44
75933;BME280;64803;52.356;5.310;2023-05-03T11:32:26;103242.91;;;13.10;60.06
75933;BME280;64803;52.356;5.310;2023-05-03T11:34:53;103237.13;;;12.94;62.36
75933;BME280;64803;52.356;5.310;2023-05-03T11:37:19;103240.28;;;13.19;65.93
75933;BME280;64803;52.356;5.310;2023-05-03T11:39:45;103243.78;;;13.10;58.16
75933;BME280;64803;52.356;5.310;2023-05-03T11:42:12;103233.34;;;13.36;65.34
75933;BME280;64803;52.356;5.310;2023-05-03T11:44:38;103235.41;;;13.63;62.89
75933;BME280;64803;52.356;5.310;2023-05-03T11:47:04;103235.13;;;13.56;58.71
75933;BME280;64803;52.356;5.310;2023-05-03T11:49:30;103231.72;;;13.73;63.39
75933;BME280;64803;52.356;5.310;2023-05-03T11:51:56;103199.59;;;13.11;57.77
75933;BME280;64803;52.356;5.310;2023-05-03T11:54:22;103232.00;;;12.91;55.05
75933;BME280;64803;52.356;5.310;2023-05-03T11:56:49;103227.19;;;12.85;58.91
75933;BME280;64803;52.356;5.310;2023-05-03T11:59:15;103222.50;;;13.17;60.01
75933;BME280;64803;52.356;5.310;2023-05-03T12:01:41;103216.66;;;13.61;64.96
75933;BME280;64803;52.356;5.310;2023-05-03T12:04:08;103209.53;;;13.98;64.06
75933;BME280;64803;52.356;5.310;2023-05-03T12:06:35;103218.66;;;13.97;56.79
75933;BME280;64803;52.356;5.310;2023-05-03T12:09:01;103205.44;;;13.75;56.41
75933;BME280;64803;52.356;5.310;2023-05-03T12:11:28;103200.97;;;13.36;55.67
75933;BME280;64803;52.356;5.310;2023-05-03T12:13:56;103195.88;;;13.52;63.44
75933;BME280;64803;52.356;5.310;2023-05-03T12:16:23;103194.59;;;14.04;65.86
75933;BME280;64803;52.356;5.310;2023-05-03T12:18:56;103193.34;;;14.17;60.86
75933;BME280;64803;52.356;5.310;2023-05-03T12:21:44;103193.34;;;14.36;62.97
75933;BME280;64803;52.356;5.310;2023-05-03T12:24:11;103185.19;;;14.46;58.89
75933;BME280;64803;52.356;5.310;2023-05-03T12:26:37;103192.47;;;14.17;57.73
75933;BME280;64803;52.356;5.310;2023-05-03T12:29:03;103187.06;;;14.07;56.68
75933;BME280;64803;52.356;5.310;2023-05-03T12:31:29;103189.63;;;14.18;56.33
75933;BME280;64803;52.356;5.310;2023-05-03T12:33:55;103166.72;;;14.41;65.52
75933;BME280;64803;52.356;5.310;2023-05-03T12:36:21;103171.31;;;14.68;63.07
75933;BME280;64803;52.356;5.310;2023-05-03T12:38:47;103173.66;;;14.53;57.19
75933;BME280;64803;52.356;5.310;2023-05-03T12:41:15;103177.00;;;14.00;55.06
75933;BME280;64803;52.356;5.310;2023-05-03T12:43:41;103164.63;;;14.26;63.42
75933;BME280;64803;52.356;5.310;2023-05-03T12:46:07;103164.44;;;14.74;60.92
75933;BME280;64803;52.356;5.310;2023-05-03T12:48:33;103152.91;;;14.25;55.62
75933;BME280;64803;52.356;5.310;2023-05-03T12:50:59;103164.19;;;14.67;63.60
75933;BME280;64803;52.356;5.310;2023-05-03T12:53:25;103160.53;;;14.58;55.62
75933;BME280;64803;52.356;5.310;2023-05-03T12:55:52;103156.47;;;14.35;55.19
75933;BME280;64803;52.356;5.310;2023-05-03T12:58:18;103154.13;;;13.94;54.35
75933;BME280;64803;52.356;5.310;2023-05-03T13:00:45;103154.69;;;13.40;53.91
75933;BME280;64803;52.356;5.310;2023-05-03T13:03:12;103157.53;;;13.87;55.83
75933;BME280;64803;52.356;5.310;2023-05-03T13:05:39;103145.81;;;14.15;54.89
75933;BME280;64803;52.356;5.310;2023-05-03T13:08:05;103138.16;;;14.29;57.85
75933;BME280;64803;52.356;5.310;2023-05-03T13:10:31;103137.16;;;14.11;55.10
75933;BME280;64803;52.356;5.310;2023-05-03T13:12:57;103134.16;;;14.14;56.62
75933;BME280;64803;52.356;5.310;2023-05-03T13:15:23;103124.28;;;14.51;56.35
75933;BME280;64803;52.356;5.310;2023-05-03T13:17:52;103118.31;;;14.75;61.79